Watertown, Wisconsin
Current Conditions -  °F | °C
As of 7:35 PM on Thursday 27 Nov 2014 (Local Time) from KRYV Reporting Station
Clear Clear  
Wind Chill:   Ceiling: Unl
Heat Index:   Visibility: 10mi
Dew Point:   Wind: 3mph
Humidity: 96%   Direction: 280°W
Pressure: 30.39"   Gusts: NA
Location:  43.2°N, 88.72°W
Report Text: KRYV 280135Z AUTO 28003KT 10SM CLR M13/M14 A3039 RMK AO2 T11311136
Loading
Personal Weather Stations






























Interactive Weather Map New forecast layout! Learn more

10-Day Weather Forecast

Advertisements
Track Severe Weather on mobile